Time;durP1;ratioP1;P1;durP2;ratioP2;P2;SDS_P1;SDS_P2;PMS_P1;PMS_P2;Temp;Humidity;BMP_temperature;BMP_pressure;BME280_temperature;BME280_humidity;BME280_pressure;Samples;Min_cycle;Max_cycle;Signal;HPM_P1;HPM_P2
2021/12/26 00:00:13;;;;;;;50.13;28.93;;;;;;;2.02;100.00;100277.00;5070231;28;20486;-70
2021/12/26 00:02:39;;;;;;;48.72;28.17;;;;;;;2.01;100.00;100269.25;5069331;28;20056;-71
2021/12/26 00:05:05;;;;;;;46.20;28.13;;;;;;;2.21;100.00;100286.75;5035994;28;20048;-71
2021/12/26 00:07:31;;;;;;;48.17;28.40;;;;;;;2.09;100.00;100286.81;5056778;28;20406;-71
2021/12/26 00:09:56;;;;;;;48.20;28.83;;;;;;;2.02;100.00;100271.91;5071172;28;20037;-71
2021/12/26 00:12:22;;;;;;;45.23;28.40;;;;;;;2.12;100.00;100291.25;5074484;28;20036;-71
2021/12/26 00:14:47;;;;;;;45.60;26.67;;;;;;;2.06;100.00;100293.38;5074443;28;20032;-71
2021/12/26 00:17:13;;;;;;;38.27;25.10;;;;;;;2.02;100.00;100297.38;5074195;28;20028;-71
2021/12/26 00:19:38;;;;;;;36.37;23.83;;;;;;;1.66;100.00;100238.06;5074414;28;20032;-71
2021/12/26 00:22:04;;;;;;;36.13;24.03;;;;;;;1.84;100.00;100303.72;5074110;28;20075;-71
2021/12/26 00:24:30;;;;;;;38.83;24.53;;;;;;;1.20;100.00;100288.28;5074081;28;20039;-69
2021/12/26 00:26:56;;;;;;;43.53;26.60;;;;;;;0.96;100.00;100293.38;5072872;28;20033;-69
2021/12/26 00:29:21;;;;;;;44.63;27.40;;;;;;;0.92;100.00;100304.97;5074017;28;20024;-71
2021/12/26 00:31:47;;;;;;;46.13;29.83;;;;;;;0.85;100.00;100294.22;5074234;28;20052;-72
2021/12/26 00:34:12;;;;;;;46.10;28.40;;;;;;;1.02;100.00;100298.84;5074119;28;20114;-71
2021/12/26 00:36:38;;;;;;;44.17;26.57;;;;;;;0.85;100.00;100258.63;5074185;28;20041;-72
2021/12/26 00:39:04;;;;;;;36.13;23.33;;;;;;;1.07;100.00;100289.94;5073916;28;20035;-71
2021/12/26 00:41:30;;;;;;;40.77;23.93;;;;;;;0.77;100.00;100203.09;5073668;28;20562;-71
2021/12/26 00:43:55;;;;;;;37.27;23.77;;;;;;;1.17;100.00;100288.03;5073741;28;20103;-71
2021/12/26 00:46:21;;;;;;;37.20;24.10;;;;;;;1.03;100.00;100304.84;5073750;28;20437;-70
2021/12/26 00:48:46;;;;;;;39.50;23.93;;;;;;;0.99;100.00;100301.19;5073639;28;20055;-71
2021/12/26 00:51:12;;;;;;;36.27;23.37;;;;;;;1.04;100.00;100287.16;5073387;28;20044;-71
2021/12/26 00:53:38;;;;;;;34.90;22.70;;;;;;;1.11;100.00;100281.75;5073399;28;20510;-71
2021/12/26 00:56:04;;;;;;;35.83;22.50;;;;;;;1.27;100.00;100293.91;5073782;28;20074;-70
2021/12/26 00:58:29;;;;;;;33.37;22.20;;;;;;;1.37;100.00;100281.81;5073855;28;20028;-70
2021/12/26 01:00:55;;;;;;;33.47;21.97;;;;;;;1.37;100.00;100279.28;5073722;28;20032;-70
2021/12/26 01:03:21;;;;;;;32.90;21.37;;;;;;;1.22;100.00;100291.78;5073273;28;20036;-72
2021/12/26 01:05:52;;;;;;;36.90;23.83;;;;;;;0.77;100.00;100302.19;5073616;28;20032;-70
2021/12/26 01:08:23;;;;;;;35.47;22.57;;;;;;;0.72;100.00;100302.59;5073203;28;20024;-70
2021/12/26 01:10:56;;;;;;;37.00;24.77;;;;;;;0.63;100.00;100267.25;5073599;28;20107;-70
2021/12/26 01:13:33;;;;;;;34.47;23.83;;;;;;;0.95;100.00;100296.66;5073190;28;20464;-70
2021/12/26 01:16:01;;;;;;;33.67;23.00;;;;;;;1.04;100.00;100294.78;5025543;28;20046;-70
2021/12/26 01:18:30;;;;;;;35.60;21.30;;;;;;;0.89;100.00;100292.00;5072979;28;20044;-69
2021/12/26 01:21:05;;;;;;;48.25;24.25;;;;;;;0.76;100.00;100299.50;5073174;28;20043;-69
2021/12/26 01:23:32;;;;;;;44.13;23.10;;;;;;;0.54;100.00;100290.31;5073196;28;20078;-69
2021/12/26 01:25:59;;;;;;;38.20;22.37;;;;;;;0.58;100.00;100299.94;5073220;28;20028;-70
2021/12/26 01:28:28;;;;;;;55.57;25.13;;;;;;;0.46;100.00;100294.84;5073230;28;20020;-70
2021/12/26 01:30:56;;;;;;;52.22;27.85;;;;;;;0.19;100.00;100273.34;5072716;28;20574;-70
2021/12/26 01:33:22;;;;;;;79.53;38.87;;;;;;;0.24;100.00;100296.56;5072960;28;20032;-70
2021/12/26 01:35:48;;;;;;;49.27;29.83;;;;;;;0.04;100.00;100255.31;5070292;28;20020;-71
2021/12/26 01:38:15;;;;;;;41.40;24.37;;;;;;;0.39;100.00;100295.16;5072232;28;20505;-70
2021/12/26 01:40:45;;;;;;;34.67;23.97;;;;;;;0.51;100.00;100299.38;5072842;28;20032;-70
2021/12/26 01:43:11;;;;;;;;;;;;;;;0.53;100.00;100293.63;5073115;28;20446;-70
2021/12/26 01:45:36;;;;;;;35.23;24.27;;;;;;;0.51;100.00;100276.50;5073096;28;19995;-71
2021/12/26 01:48:05;;;;;;;31.50;21.57;;;;;;;0.75;100.00;100287.59;5072371;28;20067;-70
2021/12/26 01:50:31;;;;;;;34.97;23.87;;;;;;;0.80;100.00;100268.50;5072638;28;20072;-70
2021/12/26 01:52:57;;;;;;;34.10;23.43;;;;;;;0.93;100.00;100277.88;5072676;28;20039;-70
2021/12/26 01:55:43;;;;;;;35.30;22.63;;;;;;;1.03;100.00;100280.28;5072781;28;20033;-69
2021/12/26 01:58:21;;;;;;;37.00;22.67;;;;;;;1.16;100.00;100278.63;5072197;28;20467;-69
2021/12/26 02:00:52;;;;;;;33.33;21.37;;;;;;;1.11;100.00;100286.81;5072319;28;20036;-69
2021/12/26 02:03:18;;;;;;;30.87;21.53;;;;;;;1.00;100.00;100290.25;5020188;28;20047;-69
2021/12/26 02:05:44;;;;;;;31.10;22.17;;;;;;;0.91;100.00;100285.41;5072043;28;20495;-69
2021/12/26 02:08:10;;;;;;;30.17;20.70;;;;;;;0.87;100.00;100287.59;5072242;28;20027;-70
2021/12/26 02:10:35;;;;;;;34.70;21.70;;;;;;;0.53;100.00;100280.06;5071962;28;20536;-70
2021/12/26 02:13:01;;;;;;;33.93;21.53;;;;;;;-0.04;100.00;100233.53;5072078;28;20032;-70
2021/12/26 02:15:27;;;;;;;31.77;22.27;;;;;;;0.18;100.00;100284.25;5072397;28;20036;-70
2021/12/26 02:17:53;;;;;;;34.57;23.10;;;;;;;0.18;100.00;100285.94;5071827;28;20476;-69
2021/12/26 02:23:13;;;;;;;32.37;20.77;;;;;;;-0.04;100.00;100234.44;5055871;28;20140;-70
2021/12/26 02:28:12;;;;;;;29.60;20.50;;;;;;;0.34;100.00;100275.25;5052034;28;20025;-69
2021/12/26 02:30:38;;;;;;;30.80;20.60;;;;;;;0.59;100.00;100290.66;5051825;28;20529;-69
2021/12/26 02:33:07;;;;;;;27.07;19.70;;;;;;;0.66;100.00;100295.44;5016530;28;20068;-69
2021/12/26 02:35:34;;;;;;;28.17;19.00;;;;;;;0.77;100.00;100286.03;5051549;28;20396;-69
2021/12/26 02:37:59;;;;;;;29.77;18.80;;;;;;;0.90;100.00;100283.63;5051683;28;20021;-69
2021/12/26 02:40:25;;;;;;;24.50;18.13;;;;;;;0.82;100.00;100274.53;5051921;28;20078;-69
2021/12/26 02:42:50;;;;;;;31.67;20.80;;;;;;;0.88;100.00;100291.91;5051831;28;20032;-69
2021/12/26 02:45:16;;;;;;;33.07;21.70;;;;;;;0.94;100.00;100290.69;5051627;28;20029;-69
2021/12/26 02:47:46;;;;;;;29.53;20.37;;;;;;;1.00;100.00;100286.81;5051652;28;20469;-70
2021/12/26 02:50:13;;;;;;;;;;;;;;;0.86;100.00;100296.88;5051923;28;20057;-71
2021/12/26 02:52:39;;;;;;;31.97;20.17;;;;;;;0.42;100.00;100257.25;5051610;28;19964;-71
2021/12/26 02:55:05;;;;;;;30.53;20.37;;;;;;;0.51;100.00;100272.28;5051523;28;20059;-71
2021/12/26 02:57:32;;;;;;;30.43;20.90;;;;;;;0.83;100.00;100304.28;5051127;28;20501;-72
2021/12/26 03:00:06;;;;;;;27.17;19.80;;;;;;;0.85;100.00;100304.38;5051369;28;20039;-71
2021/12/26 03:02:32;;;;;;;30.03;20.87;;;;;;;0.95;100.00;100306.84;5033351;28;20108;-71
2021/12/26 03:04:57;;;;;;;31.80;21.10;;;;;;;0.97;100.00;100310.34;5051214;28;20028;-70
2021/12/26 03:07:23;;;;;;;31.27;22.20;;;;;;;0.71;100.00;100293.22;5050861;28;20537;-70
2021/12/26 03:09:50;;;;;;;31.87;21.50;;;;;;;0.49;100.00;100301.81;5051539;28;20041;-70
2021/12/26 03:12:15;;;;;;;34.07;21.20;;;;;;;0.28;100.00;100316.31;5051027;28;20487;-71
2021/12/26 03:14:41;;;;;;;36.07;21.83;;;;;;;0.26;100.00;100310.22;5051248;28;20040;-71
2021/12/26 03:17:07;;;;;;;31.13;20.80;;;;;;;0.29;100.00;100310.47;5050998;28;20032;-71
2021/12/26 03:19:34;;;;;;;32.17;21.70;;;;;;;-0.14;100.00;100220.94;5051055;28;20025;-71
2021/12/26 03:22:00;;;;;;;34.10;23.30;;;;;;;0.16;100.00;100262.94;5050671;28;20044;-70
2021/12/26 03:24:26;;;;;;;32.60;22.10;;;;;;;0.32;100.00;100282.75;4999753;28;20044;-70
2021/12/26 03:26:59;;;;;;;33.27;22.03;;;;;;;0.29;100.00;100259.69;5050887;28;20029;-71
2021/12/26 03:29:25;;;;;;;35.17;22.60;;;;;;;0.46;100.00;100299.91;5050741;28;20037;-69
2021/12/26 03:31:50;;;;;;;35.27;22.90;;;;;;;0.63;100.00;100303.69;5051002;28;20040;-69
2021/12/26 03:34:16;;;;;;;34.87;23.03;;;;;;;0.08;100.00;100209.06;5050949;28;20437;-69
2021/12/26 03:36:42;;;;;;;36.07;24.00;;;;;;;0.63;100.00;100301.16;5050955;28;20028;-69
2021/12/26 03:39:08;;;;;;;35.53;23.27;;;;;;;0.70;100.00;100302.50;5050537;28;20403;-69
2021/12/26 03:41:33;;;;;;;32.70;22.93;;;;;;;0.79;100.00;100297.22;5051014;28;20036;-69
2021/12/26 03:43:59;;;;;;;36.47;23.50;;;;;;;0.75;100.00;100288.47;5050934;28;20029;-69
2021/12/26 03:46:25;;;;;;;36.13;23.67;;;;;;;0.59;100.00;100270.34;5050761;28;20021;-69
2021/12/26 03:48:50;;;;;;;32.63;21.63;;;;;;;0.76;100.00;100300.41;5050756;28;20415;-70
2021/12/26 03:51:18;;;;;;;36.87;23.17;;;;;;;0.68;100.00;100301.50;5050832;28;20045;-69
2021/12/26 03:53:43;;;;;;;33.27;22.47;;;;;;;0.52;100.00;100308.75;5050747;28;20030;-69
2021/12/26 03:56:09;;;;;;;33.97;23.37;;;;;;;0.51;100.00;100312.06;5050845;28;20039;-69
2021/12/26 03:58:35;;;;;;;35.30;22.70;;;;;;;0.20;100.00;100274.22;5050890;28;20029;-69
2021/12/26 04:01:00;;;;;;;36.40;23.30;;;;;;;0.21;100.00;100270.91;5050676;28;20029;-69
2021/12/26 04:03:26;;;;;;;34.00;22.50;;;;;;;0.52;100.00;100319.78;5050761;28;20033;-69
2021/12/26 04:05:51;;;;;;;39.03;22.87;;;;;;;0.51;100.00;100318.00;5050320;28;20472;-69
2021/12/26 04:08:17;;;;;;;37.40;23.10;;;;;;;0.26;100.00;100272.13;5050849;28;20029;-69
2021/12/26 04:10:42;;;;;;;36.97;22.90;;;;;;;0.61;100.00;100322.13;5050810;28;20509;-69
2021/12/26 04:13:08;;;;;;;35.07;22.07;;;;;;;0.34;100.00;100271.06;5050751;28;20514;-69
2021/12/26 04:15:34;;;;;;;35.27;24.40;;;;;;;0.63;100.00;100310.44;5050659;28;20033;-69
2021/12/26 04:18:00;;;;;;;35.90;24.43;;;;;;;0.59;100.00;100308.44;5050509;28;20036;-70
2021/12/26 04:20:26;;;;;;;35.07;23.40;;;;;;;0.67;100.00;100330.22;5050588;28;20104;-70
2021/12/26 04:22:53;;;;;;;38.07;24.57;;;;;;;0.69;100.00;100325.25;5050236;28;20053;-70
2021/12/26 04:25:20;;;;;;;34.67;23.37;;;;;;;0.73;100.00;100322.16;5058318;28;20037;-69
2021/12/26 04:27:46;;;;;;;37.87;24.77;;;;;;;0.78;100.00;100323.38;5070274;28;20082;-70
2021/12/26 04:30:13;;;;;;;37.30;24.80;;;;;;;0.75;100.00;100307.94;5018189;28;20421;-70
2021/12/26 04:32:39;;;;;;;38.40;25.23;;;;;;;0.80;100.00;100314.22;5070504;28;20051;-70
2021/12/26 04:35:06;;;;;;;40.87;26.30;;;;;;;0.89;100.00;100308.94;5070512;28;20115;-70
2021/12/26 04:37:32;;;;;;;40.67;25.40;;;;;;;0.65;100.00;100319.06;5070337;28;20104;-69
2021/12/26 04:39:57;;;;;;;42.03;25.20;;;;;;;0.67;100.00;100324.25;5070285;28;20093;-70
2021/12/26 04:42:23;;;;;;;34.83;24.03;;;;;;;0.63;100.00;100318.06;5070739;28;20394;-70
2021/12/26 04:44:50;;;;;;;40.07;26.10;;;;;;;0.54;100.00;100325.00;5069940;28;20025;-71
2021/12/26 04:47:16;;;;;;;38.73;26.17;;;;;;;0.44;100.00;100326.84;5070147;28;20032;-70
2021/12/26 04:49:41;;;;;;;43.53;26.37;;;;;;;0.37;100.00;100311.03;5070224;28;20426;-69
2021/12/26 04:52:07;;;;;;;41.13;25.57;;;;;;;0.41;100.00;100297.78;5070876;28;20044;-70
2021/12/26 04:54:32;;;;;;;38.97;24.97;;;;;;;0.62;100.00;100332.44;5073580;28;20475;-70
2021/12/26 04:56:58;;;;;;;38.17;24.47;;;;;;;0.39;100.00;100285.00;5073597;28;20036;-70
2021/12/26 04:59:23;;;;;;;40.10;24.63;;;;;;;0.66;100.00;100338.63;5073749;28;20060;-70
2021/12/26 05:01:49;;;;;;;40.87;23.83;;;;;;;0.39;100.00;100304.44;5073727;28;20524;-70
2021/12/26 05:04:15;;;;;;;39.80;25.67;;;;;;;0.61;100.00;100350.06;5021546;28;20139;-70
2021/12/26 05:06:40;;;;;;;36.27;23.93;;;;;;;0.38;100.00;100285.75;5073565;28;20060;-70
2021/12/26 05:09:06;;;;;;;39.20;24.63;;;;;;;0.52;100.00;100327.41;5054673;28;20041;-70
2021/12/26 05:11:33;;;;;;;42.40;26.50;;;;;;;0.41;100.00;100323.19;5073367;28;20050;-70
2021/12/26 05:13:58;;;;;;;39.17;25.10;;;;;;;0.48;100.00;100325.41;5073232;28;20035;-70
2021/12/26 05:16:23;;;;;;;43.43;26.00;;;;;;;0.13;100.00;100277.97;5073522;28;20041;-69
2021/12/26 05:18:49;;;;;;;39.00;25.43;;;;;;;0.10;100.00;100276.06;5073229;28;20024;-69
2021/12/26 05:21:14;;;;;;;47.03;26.83;;;;;;;0.38;100.00;100312.81;5071610;28;20469;-70
2021/12/26 05:23:41;;;;;;;42.90;27.43;;;;;;;0.58;100.00;100325.31;5053453;28;20471;-69
2021/12/26 05:26:07;;;;;;;45.77;27.37;;;;;;;0.64;100.00;100307.13;5002158;28;20481;-69
2021/12/26 05:28:34;;;;;;;45.27;26.90;;;;;;;0.52;100.00;100275.75;5052973;28;20039;-69
2021/12/26 05:30:59;;;;;;;50.97;28.77;;;;;;;0.75;100.00;100310.47;5053099;28;20060;-69
2021/12/26 05:33:25;;;;;;;52.73;30.20;;;;;;;0.74;100.00;100306.16;5053196;28;20110;-70
2021/12/26 05:35:50;;;;;;;57.30;32.07;;;;;;;0.86;100.00;100321.41;5053295;28;20048;-70
2021/12/26 05:38:16;;;;;;;57.17;31.97;;;;;;;0.69;100.00;100282.94;5053059;28;20029;-70
2021/12/26 05:40:41;;;;;;;57.60;31.53;;;;;;;0.93;100.00;100321.09;5052765;28;20075;-70
2021/12/26 05:43:07;;;;;;;49.70;29.33;;;;;;;0.86;100.00;100322.31;5052644;28;20040;-70
2021/12/26 05:45:32;;;;;;;50.27;29.57;;;;;;;0.72;100.00;100333.09;5053088;28;20063;-69
2021/12/26 05:47:58;;;;;;;51.20;28.63;;;;;;;0.48;100.00;100300.91;5072236;28;20082;-69
2021/12/26 05:50:24;;;;;;;49.13;30.27;;;;;;;0.64;100.00;100338.50;5072648;28;20029;-69
2021/12/26 05:52:50;;;;;;;51.23;29.27;;;;;;;0.63;100.00;100325.69;5072407;28;20080;-69
2021/12/26 05:55:16;;;;;;;49.73;29.17;;;;;;;0.54;100.00;100299.59;5072621;28;20497;-69
2021/12/26 05:57:42;;;;;;;48.87;29.23;;;;;;;0.77;100.00;100327.59;5072533;28;20098;-69
2021/12/26 06:00:11;;;;;;;50.47;29.10;;;;;;;0.84;100.00;100330.59;5072215;28;20479;-69
2021/12/26 06:02:37;;;;;;;55.22;31.42;;;;;;;0.72;100.00;100316.19;5072048;28;20099;-69
2021/12/26 06:05:03;;;;;;;51.83;30.70;;;;;;;0.71;100.00;100326.25;5072478;28;20044;-69
2021/12/26 06:07:28;;;;;;;50.33;30.20;;;;;;;0.44;100.00;100318.34;5072451;28;20031;-69
2021/12/26 06:09:54;;;;;;;51.50;30.30;;;;;;;0.11;100.00;100282.03;5072159;28;20410;-69
2021/12/26 06:12:19;;;;;;;56.23;31.17;;;;;;;0.41;100.00;100333.34;5071971;28;20028;-69
2021/12/26 06:14:45;;;;;;;50.13;31.67;;;;;;;0.46;100.00;100332.03;5072204;28;20031;-69
2021/12/26 06:17:10;;;;;;;50.53;29.47;;;;;;;0.64;100.00;100346.13;5072080;28;20024;-69
2021/12/26 06:19:36;;;;;;;55.47;31.37;;;;;;;0.70;100.00;100345.69;5072032;28;20028;-69
2021/12/26 06:22:02;;;;;;;55.10;30.27;;;;;;;0.75;100.00;100349.47;5072414;28;20028;-69
2021/12/26 06:24:29;;;;;;;52.60;31.93;;;;;;;0.64;100.00;100335.06;5072083;28;20081;-69
2021/12/26 06:26:55;;;;;;;53.83;30.87;;;;;;;0.76;100.00;100361.41;5071451;28;20067;-69
2021/12/26 06:29:20;;;;;;;58.20;33.63;;;;;;;0.82;100.00;100357.53;5071579;28;20488;-69
2021/12/26 06:31:46;;;;;;;61.87;35.53;;;;;;;0.77;100.00;100357.19;5067820;28;20066;-68
2021/12/26 06:34:11;;;;;;;61.33;35.00;;;;;;;0.61;100.00;100342.47;5054497;28;20475;-69
2021/12/26 06:36:37;;;;;;;68.83;38.53;;;;;;;0.50;100.00;100325.53;5062101;28;20024;-68
2021/12/26 06:39:04;;;;;;;68.40;41.23;;;;;;;0.72;100.00;100358.50;5071409;28;20078;-68
2021/12/26 06:41:29;;;;;;;65.50;40.27;;;;;;;0.68;100.00;100344.69;5071052;28;20452;-69
2021/12/26 06:43:55;;;;;;;65.37;39.77;;;;;;;0.61;100.00;100350.06;5068935;28;20028;-69
2021/12/26 06:46:21;;;;;;;64.00;40.50;;;;;;;0.49;100.00;100334.81;5062348;28;20044;-70
2021/12/26 06:48:46;;;;;;;65.53;40.37;;;;;;;0.62;100.00;100346.78;5059959;28;20024;-70
2021/12/26 06:51:11;;;;;;;69.33;40.33;;;;;;;0.68;100.00;100343.81;5060052;28;20024;-70
2021/12/26 06:53:37;;;;;;;63.93;37.80;;;;;;;0.57;100.00;100317.59;5050762;28;20521;-70
2021/12/26 06:56:04;;;;;;;61.20;38.63;;;;;;;0.73;100.00;100333.19;5048159;28;20082;-69
2021/12/26 06:58:29;;;;;;;66.50;40.13;;;;;;;0.59;100.00;100301.69;5049470;28;20029;-68
2021/12/26 07:00:55;;;;;;;67.27;41.57;;;;;;;0.88;100.00;100350.38;5050733;28;20471;-69
2021/12/26 07:03:20;;;;;;;77.03;46.40;;;;;;;0.86;100.00;100354.44;5050564;28;20029;-69
2021/12/26 07:05:46;;;;;;;75.00;45.43;;;;;;;0.84;100.00;100353.47;5048971;28;20095;-68
2021/12/26 07:08:11;;;;;;;72.70;42.13;;;;;;;0.76;100.00;100363.94;5050240;28;20413;-69
2021/12/26 07:10:37;;;;;;;77.70;45.47;;;;;;;0.69;100.00;100374.41;5050572;28;20020;-68
2021/12/26 07:13:03;;;;;;;86.13;50.23;;;;;;;0.70;100.00;100367.66;5050683;28;20474;-68
2021/12/26 07:15:29;;;;;;;83.33;53.23;;;;;;;0.73;100.00;100371.31;5050140;28;20112;-68
2021/12/26 07:17:54;;;;;;;82.00;50.70;;;;;;;0.82;100.00;100377.88;5051028;28;20124;-68
2021/12/26 07:20:20;;;;;;;84.27;49.90;;;;;;;0.78;100.00;100358.97;5048497;28;20028;-69
2021/12/26 07:22:46;;;;;;;86.43;51.30;;;;;;;0.85;100.00;100366.28;5031469;28;20091;-70
2021/12/26 07:25:12;;;;;;;71.73;48.03;;;;;;;0.97;100.00;100376.44;5050597;28;20043;-69
2021/12/26 07:27:38;;;;;;;74.27;45.37;;;;;;;0.86;100.00;100341.72;5050469;28;20041;-69
2021/12/26 07:30:06;;;;;;;82.77;52.33;;;;;;;0.80;100.00;100332.88;5050705;28;20059;-70
2021/12/26 07:32:32;;;;;;;152.63;84.43;;;;;;;1.06;100.00;100377.16;5050667;28;20469;-69
2021/12/26 07:34:58;;;;;;;86.57;52.33;;;;;;;0.92;100.00;100348.16;5050720;28;20033;-69
2021/12/26 07:37:25;;;;;;;67.67;40.47;;;;;;;1.17;100.00;100377.03;5050615;28;20056;-69
2021/12/26 07:39:52;;;;;;;56.20;36.83;;;;;;;1.15;100.00;100376.03;5050464;28;20547;-69
2021/12/26 07:42:17;;;;;;;59.60;37.53;;;;;;;1.04;100.00;100360.88;5050661;28;20065;-70
2021/12/26 07:44:43;;;;;;;57.90;35.40;;;;;;;1.04;100.00;100373.59;5050977;28;20073;-70
2021/12/26 07:47:09;;;;;;;53.93;34.53;;;;;;;1.11;100.00;100391.06;5050521;28;20037;-69
2021/12/26 07:49:35;;;;;;;49.50;32.30;;;;;;;1.01;100.00;100375.03;5050539;28;20103;-69
2021/12/26 07:52:01;;;;;;;51.07;31.97;;;;;;;1.07;100.00;100375.47;5056956;28;20139;-69
2021/12/26 07:54:26;;;;;;;57.17;36.43;;;;;;;1.16;100.00;100357.47;5070220;28;20035;-70
2021/12/26 07:56:54;;;;;;;56.90;35.83;;;;;;;1.34;100.00;100363.00;5070379;28;20029;-69
2021/12/26 07:59:20;;;;;;;51.90;31.90;;;;;;;1.41;100.00;100350.84;5070456;28;20029;-69
2021/12/26 08:01:46;;;;;;;46.13;30.10;;;;;;;1.63;100.00;100347.25;5070599;28;20036;-70
2021/12/26 08:04:13;;;;;;;48.17;28.77;;;;;;;1.55;100.00;100341.63;5070601;28;20433;-70
2021/12/26 08:06:40;;;;;;;50.40;30.43;;;;;;;1.54;100.00;100336.44;5069929;28;20064;-72
2021/12/26 08:09:07;;;;;;;54.97;30.37;;;;;;;1.65;100.00;100344.84;5060270;28;20626;-70
2021/12/26 08:11:32;;;;;;;47.93;30.57;;;;;;;1.66;100.00;100338.94;5070463;28;20074;-69
2021/12/26 08:13:58;;;;;;;49.33;30.57;;;;;;;1.73;100.00;100346.25;5058502;28;20079;-69
2021/12/26 08:16:26;;;;;;;57.20;31.90;;;;;;;1.82;100.00;100344.38;5050284;28;20025;-69
2021/12/26 08:18:52;;;;;;;56.57;31.93;;;;;;;1.90;100.00;100337.25;5049924;28;20032;-70
2021/12/26 08:21:17;;;;;;;61.17;34.53;;;;;;;1.97;100.00;100338.53;5050040;28;20514;-70
2021/12/26 08:23:43;;;;;;;72.27;36.57;;;;;;;1.88;100.00;100300.63;5049868;28;20029;-70
2021/12/26 08:26:08;;;;;;;69.77;35.80;;;;;;;2.28;100.00;100353.41;5051575;28;20505;-70
2021/12/26 08:28:34;;;;;;;76.85;36.17;;;;;;;2.38;100.00;100356.69;5053980;28;20032;-70
2021/12/26 08:31:01;;;;;;;72.10;36.97;;;;;;;2.49;100.00;100356.50;5053862;28;20407;-70
2021/12/26 08:33:26;;;;;;;76.17;40.03;;;;;;;2.59;100.00;100364.00;5056940;28;20017;-70
2021/12/26 08:35:52;;;;;;;75.32;38.75;;;;;;;2.59;100.00;100335.94;5055196;28;20456;-70
2021/12/26 08:38:21;;;;;;;88.03;41.35;;;;;;;2.69;100.00;100340.00;5053598;28;20028;-71
2021/12/26 08:40:48;;;;;;;79.25;39.67;;;;;;;2.71;100.00;100339.31;5053627;28;20475;-70
2021/12/26 08:43:14;;;;;;;73.70;36.75;;;;;;;2.35;100.00;100295.31;5053754;28;20114;-70
2021/12/26 08:45:40;;;;;;;68.32;35.30;;;;;;;2.71;100.00;100339.31;5053694;28;20025;-70
2021/12/26 08:48:05;;;;;;;62.17;37.33;;;;;;;2.63;100.00;100302.25;5037580;28;20033;-70
2021/12/26 08:50:31;;;;;;;62.38;37.05;;;;;;;2.95;100.00;100349.34;5055866;28;20039;-70
2021/12/26 08:52:57;;;;;;;65.60;38.63;;;;;;;3.01;100.00;100333.59;5069266;28;20061;-71
2021/12/26 08:55:24;;;;;;;74.68;44.05;;;;;;;3.06;100.00;100292.28;5057172;28;20475;-70
2021/12/26 08:57:50;;;;;;;74.28;43.67;;;;;;;3.47;100.00;100338.22;5053468;28;20024;-70
2021/12/26 09:00:17;;;;;;;64.40;38.55;;;;;;;3.47;100.00;100338.22;5053422;28;20025;-70
2021/12/26 09:02:43;;;;;;;67.90;38.53;;;;;;;3.32;100.00;100295.63;5053408;28;20047;-70
2021/12/26 09:05:09;;;;;;;63.35;38.38;;;;;;;3.55;100.00;100327.69;5053013;28;20483;-70
2021/12/26 09:07:36;;;;;;;72.28;42.28;;;;;;;3.60;100.00;100320.34;5053211;28;20033;-70
2021/12/26 09:10:04;;;;;;;65.38;41.72;;;;;;;3.64;100.00;100319.72;5053170;28;20028;-70
2021/12/26 09:12:30;;;;;;;85.00;49.90;;;;;;;3.79;100.00;100324.91;5052963;28;20475;-71
2021/12/26 09:14:55;;;;;;;92.63;51.55;;;;;;;3.85;100.00;100307.41;5053078;28;20036;-71
2021/12/26 09:17:21;;;;;;;91.18;51.67;;;;;;;3.94;100.00;100324.06;5053052;28;20162;-71
2021/12/26 09:19:47;;;;;;;81.45;41.42;;;;;;;3.97;100.00;100319.16;5053118;28;20032;-71
2021/12/26 09:22:15;;;;;;;79.00;43.55;;;;;;;4.07;100.00;100328.25;5058107;28;20033;-70
2021/12/26 09:24:41;;;;;;;77.45;43.67;;;;;;;4.14;100.00;100323.63;5065216;28;20056;-69
2021/12/26 09:27:08;;;;;;;93.03;46.90;;;;;;;4.09;100.00;100316.44;5066870;28;20037;-69
2021/12/26 09:29:34;;;;;;;95.50;49.72;;;;;;;4.13;100.00;100320.97;5061470;28;20223;-69
2021/12/26 09:32:02;;;;;;;97.80;54.67;;;;;;;4.07;100.00;100305.28;5069990;28;20115;-69
2021/12/26 09:34:30;;;;;;;93.97;54.60;;;;;;;4.23;100.00;100317.31;5070414;28;20025;-71
2021/12/26 09:36:56;;;;;;;81.22;45.72;;;;;;;4.25;100.00;100313.13;5064850;28;20039;-71
2021/12/26 09:39:23;;;;;;;80.88;47.20;;;;;;;4.19;100.00;100317.09;5066956;28;20036;-70
2021/12/26 09:41:50;;;;;;;87.85;48.25;;;;;;;4.22;100.00;100318.97;5069785;28;20025;-70
2021/12/26 09:44:16;;;;;;;79.00;48.90;;;;;;;3.97;100.00;100268.06;5063614;28;20546;-69
2021/12/26 09:46:42;;;;;;;83.65;48.92;;;;;;;4.25;100.00;100295.25;5054250;28;20159;-71
2021/12/26 09:49:08;;;;;;;77.80;42.47;;;;;;;4.29;100.00;100298.09;5065340;28;20028;-70
2021/12/26 09:51:33;;;;;;;72.38;39.55;;;;;;;4.47;100.00;100316.16;5063354;28;20067;-71
2021/12/26 09:53:59;;;;;;;74.07;38.17;;;;;;;4.56;100.00;100309.84;5046547;28;20492;-77
2021/12/26 09:56:25;;;;;;;55.35;33.42;;;;;;;4.52;100.00;100302.00;5038788;28;20034;-74
2021/12/26 09:58:53;;;;;;;49.80;31.48;;;;;;;4.63;100.00;100314.53;5013830;28;20044;-76
2021/12/26 10:01:43;;;;;;;44.40;28.27;;;;;;;4.67;100.00;100322.47;5046425;28;20040;-75
2021/12/26 10:04:20;;;;;;;49.50;28.73;;;;;;;4.75;100.00;100322.91;5046658;28;20147;-77
2021/12/26 10:06:48;;;;;;;48.70;29.42;;;;;;;4.73;100.00;100326.19;5048617;28;20044;-77
2021/12/26 10:09:14;;;;;;;46.72;28.75;;;;;;;4.72;100.00;100321.84;5051757;28;20036;-74
2021/12/26 10:11:45;;;;;;;58.20;33.00;;;;;;;4.45;100.00;100281.09;5049534;28;20068;-74
2021/12/26 10:14:15;;;;;;;54.08;37.83;;;;;;;4.69;100.00;100328.53;5047399;28;20713;-74
2021/12/26 10:16:46;;;;;;;62.63;42.30;;;;;;;4.45;100.00;100266.66;5047441;28;20056;-74
2021/12/26 10:19:13;;;;;;;46.10;30.77;;;;;;;4.73;100.00;100309.16;5045643;28;20462;-76
2021/12/26 10:21:48;;;;;;;40.92;26.65;;;;;;;4.81;100.00;100304.47;5048455;28;20036;-73
2021/12/26 10:24:23;;;;;;;35.67;25.23;;;;;;;4.83;100.00;100303.75;5044828;28;20041;-74
2021/12/26 10:26:56;;;;;;;38.90;27.92;;;;;;;4.89;100.00;100305.81;4998857;28;20099;-74
2021/12/26 10:29:22;;;;;;;40.20;25.60;;;;;;;4.97;100.00;100302.00;5047211;28;20052;-76
2021/12/26 10:31:54;;;;;;;39.15;25.08;;;;;;;5.04;100.00;100289.56;5048514;28;20032;-75
2021/12/26 10:34:43;;;;;;;34.53;24.13;;;;;;;5.06;100.00;100285.41;5041637;28;20032;-74
2021/12/26 10:37:21;;;;;;;35.03;27.90;;;;;;;5.19;100.00;100286.16;5044144;28;20061;-79
2021/12/26 10:39:54;;;;;;;37.90;25.40;;;;;;;5.29;100.00;100289.25;5049972;28;20029;-74
2021/12/26 10:42:50;;;;;;;35.20;24.73;;;;;;;5.39;100.00;100283.81;5038374;28;20507;-75
2021/12/26 10:45:19;;;;;;;39.03;27.25;;;;;;;5.12;100.00;100243.13;5029196;28;20476;-75
2021/12/26 10:47:57;;;;;;;31.30;22.27;;;;;;;5.26;100.00;100274.59;5030492;28;20048;-74
2021/12/26 10:50:26;;;;;;;36.08;26.25;;;;;;;5.28;100.00;100278.16;5037334;28;20033;-75
2021/12/26 10:53:00;;;;;;;35.90;25.40;;;;;;;5.36;100.00;100270.88;5049774;28;20048;-75
2021/12/26 10:55:40;;;;;;;35.22;23.10;;;;;;;5.37;100.00;100276.88;5050779;28;20033;-75
2021/12/26 10:58:08;;;;;;;33.78;22.27;;;;;;;5.48;100.00;100283.44;5050924;28;20104;-75
2021/12/26 11:00:41;;;;;;;31.23;22.02;;;;;;;5.27;100.00;100243.09;5050968;28;20033;-76
2021/12/26 11:03:10;;;;;;;37.67;23.88;;;;;;;5.40;100.00;100285.59;5044213;28;20052;-75
2021/12/26 11:05:43;;;;;;;48.15;24.48;;;;;;;5.25;100.00;100272.84;5050782;28;20035;-75
2021/12/26 11:08:15;;;;;;;45.70;24.40;;;;;;;5.19;100.00;100275.06;5049726;28;20035;-76
2021/12/26 11:10:46;;;;;;;50.15;25.48;;;;;;;5.16;100.00;100280.03;5049941;28;20021;-75
2021/12/26 11:13:24;;;;;;;45.97;25.17;;;;;;;5.14;100.00;100276.47;5051042;28;20052;-75